createdAt,value
2018-01-23T00:02:40.357Z,14.00
2018-01-23T00:05:50.941Z,13.55
2018-01-23T00:09:01.699Z,15.60
2018-01-23T00:12:11.855Z,14.65
2018-01-23T00:15:21.730Z,13.93
2018-01-23T00:18:32.938Z,13.75
2018-01-23T00:21:44.390Z,12.90
2018-01-23T00:24:54.084Z,11.43
2018-01-23T00:28:03.818Z,16.52
2018-01-23T00:31:13.545Z,14.80
2018-01-23T00:34:25.202Z,14.38
2018-01-23T00:37:36.975Z,13.50
2018-01-23T00:40:47.500Z,13.27
2018-01-23T00:43:57.775Z,16.42
2018-01-23T00:47:07.649Z,15.55
2018-01-23T00:50:17.530Z,14.23
2018-01-23T00:53:27.351Z,15.48
2018-01-23T00:56:37.114Z,15.35
2018-01-23T00:59:47.054Z,16.80
2018-01-23T01:02:56.898Z,13.07
2018-01-23T01:06:07.511Z,16.50
2018-01-23T01:09:17.651Z,14.23
2018-01-23T01:12:28.435Z,14.35
2018-01-23T01:15:38.556Z,18.00
2018-01-23T01:18:49.168Z,13.90
2018-01-23T01:22:00.129Z,15.63
2018-01-23T01:25:10.806Z,13.77
2018-01-23T01:28:21.768Z,12.68
2018-01-23T01:31:32.108Z,13.60
2018-01-23T01:34:43.389Z,14.87
2018-01-23T01:37:53.183Z,14.13
2018-01-23T01:41:02.909Z,15.32
2018-01-23T01:44:13.342Z,12.60
2018-01-23T01:47:23.279Z,14.18
2018-01-23T01:50:32.972Z,16.17
2018-01-23T01:53:43.182Z,13.95
2018-01-23T01:56:54.867Z,15.75
2018-01-23T02:00:04.349Z,16.33
2018-01-23T02:03:14.598Z,15.40
2018-01-23T02:06:24.639Z,15.68
2018-01-23T02:09:35.322Z,14.82
2018-01-23T02:12:45.326Z,15.50
2018-01-23T02:15:55.281Z,16.95
2018-01-23T02:19:04.993Z,14.82
2018-01-23T02:22:15.963Z,15.10
2018-01-23T02:25:25.776Z,14.68
2018-01-23T02:28:35.594Z,15.02
2018-01-23T02:31:46.236Z,19.37
2018-01-23T02:34:56.699Z,15.63
2018-01-23T02:38:06.693Z,18.92
2018-01-23T02:41:16.808Z,16.40
2018-01-23T02:44:27.954Z,13.32
2018-01-23T02:47:39.349Z,19.23
2018-01-23T02:50:49.454Z,19.80
2018-01-23T02:54:00.330Z,13.95
2018-01-23T02:57:10.387Z,17.95
2018-01-23T03:00:21.020Z,22.13
2018-01-23T03:03:31.356Z,15.45
2018-01-23T03:06:41.898Z,17.00
2018-01-23T03:09:51.876Z,13.30
2018-01-23T03:13:02.624Z,17.23
2018-01-23T03:16:12.825Z,16.05
2018-01-23T03:19:22.372Z,16.85
2018-01-23T03:22:32.406Z,20.12
2018-01-23T03:25:42.485Z,15.73
2018-01-23T03:28:52.441Z,15.98
2018-01-23T03:32:02.403Z,15.23
2018-01-23T03:35:13.918Z,15.50
2018-01-23T03:38:24.935Z,18.37
2018-01-23T03:41:36.284Z,15.13
2018-01-23T03:44:47.638Z,15.00
2018-01-23T03:47:57.665Z,17.00
2018-01-23T03:51:08.231Z,15.32
2018-01-23T03:54:18.785Z,15.50
2018-01-23T03:57:28.670Z,12.45
2018-01-23T04:00:38.644Z,19.08
2018-01-23T04:03:48.643Z,14.82
2018-01-23T04:06:58.463Z,13.75
2018-01-23T04:10:08.442Z,13.73
2018-01-23T04:13:18.204Z,15.15
2018-01-23T04:16:28.880Z,17.67
2018-01-23T04:19:38.831Z,15.10
2018-01-23T04:22:48.762Z,11.23
2018-01-23T04:25:58.706Z,19.62
2018-01-23T04:29:08.661Z,13.30
2018-01-23T04:32:18.587Z,10.93
2018-01-23T04:35:28.422Z,17.30
2018-01-23T04:38:38.229Z,14.70
2018-01-23T04:41:48.124Z,12.75
2018-01-23T04:44:58.235Z,15.00
2018-01-23T04:48:07.967Z,15.25
2018-01-23T04:51:18.734Z,10.70
2018-01-23T04:54:28.994Z,12.48
2018-01-23T04:57:39.382Z,14.55
2018-01-23T05:00:50.175Z,11.55
2018-01-23T05:04:00.637Z,12.05
2018-01-23T05:07:10.990Z,15.15
2018-01-23T05:10:21.091Z,11.18
2018-01-23T05:13:32.570Z,12.10
2018-01-23T05:16:43.115Z,13.52
2018-01-23T05:19:53.089Z,12.50
2018-01-23T05:23:03.634Z,15.70
2018-01-23T05:26:14.196Z,14.50
2018-01-23T05:29:24.385Z,15.40
2018-01-23T05:32:34.519Z,11.38
2018-01-23T05:35:44.535Z,11.90
2018-01-23T05:38:54.480Z,13.82
2018-01-23T05:42:04.329Z,13.60
2018-01-23T05:45:14.189Z,13.38
2018-01-23T05:48:24.088Z,12.43
2018-01-23T05:51:34.162Z,14.87
2018-01-23T05:54:43.878Z,15.15
2018-01-23T05:57:54.828Z,17.10
2018-01-23T06:01:05.446Z,16.20
2018-01-23T06:04:15.576Z,14.07
2018-01-23T06:07:25.411Z,13.60
2018-01-23T06:10:35.042Z,18.92
2018-01-23T06:13:45.140Z,15.90
2018-01-23T06:16:54.901Z,14.40
2018-01-23T06:20:06.223Z,12.80
2018-01-23T06:23:16.026Z,13.40
2018-01-23T06:26:26.524Z,13.62
2018-01-23T06:29:36.474Z,15.73
2018-01-23T06:32:46.467Z,16.48
2018-01-23T06:35:56.705Z,17.67
2018-01-23T06:39:07.311Z,16.55
2018-01-23T06:42:17.666Z,17.67
2018-01-23T06:45:27.540Z,15.73
2018-01-23T06:48:37.398Z,16.92
2018-01-23T06:51:47.464Z,11.48
2018-01-23T06:54:57.250Z,12.35
2018-01-23T06:58:07.028Z,14.60
2018-01-23T07:01:17.060Z,16.48
2018-01-23T07:04:26.858Z,16.45
2018-01-23T07:07:36.636Z,15.10
2018-01-23T07:10:46.764Z,15.35
2018-01-23T07:13:56.638Z,14.85
2018-01-23T07:17:07.621Z,13.60
2018-01-23T07:20:17.317Z,12.75
2018-01-23T07:23:27.552Z,14.40
2018-01-23T07:26:37.621Z,12.30
2018-01-23T07:29:47.970Z,14.32
2018-01-23T07:32:58.261Z,14.57
2018-01-23T07:36:08.725Z,14.75
2018-01-23T07:39:20.513Z,13.80
2018-01-23T07:42:32.025Z,15.60
2018-01-23T07:45:41.937Z,13.18
2018-01-23T07:48:52.126Z,13.15
2018-01-23T07:52:01.917Z,13.43
2018-01-23T07:55:12.407Z,14.90
2018-01-23T07:58:23.164Z,14.65
2018-01-23T08:01:34.291Z,11.30
2018-01-23T08:04:43.966Z,12.50
2018-01-23T08:07:53.910Z,14.65
2018-01-23T08:11:03.711Z,15.57
2018-01-23T08:14:13.630Z,15.18
2018-01-23T08:17:23.523Z,17.45
2018-01-23T08:20:33.510Z,15.63
2018-01-23T08:23:43.505Z,14.32
2018-01-23T08:26:53.568Z,14.25
2018-01-23T08:30:03.492Z,14.40
2018-01-23T08:33:13.546Z,11.88
2018-01-23T08:36:23.838Z,13.62
2018-01-23T08:39:34.005Z,13.57
2018-01-23T08:42:44.370Z,16.85
2018-01-23T08:45:54.229Z,15.13
2018-01-23T08:49:04.482Z,17.15
2018-01-23T08:52:14.430Z,12.73
2018-01-23T08:55:24.247Z,35.10
2018-01-23T08:58:34.611Z,49.60
2018-01-23T09:01:44.491Z,40.20
2018-01-23T09:04:54.621Z,39.35
2018-01-23T09:08:04.166Z,23.90
2018-01-23T09:11:14.025Z,16.33
2018-01-23T09:14:24.604Z,9.77
2018-01-23T09:17:35.962Z,15.52
2018-01-23T09:20:45.659Z,15.40
2018-01-23T09:23:55.574Z,13.13
2018-01-23T09:27:06.372Z,15.60
2018-01-23T09:30:17.520Z,14.93
2018-01-23T09:33:27.462Z,13.82
2018-01-23T09:36:38.105Z,15.25
2018-01-23T09:39:48.317Z,16.48
2018-01-23T09:42:58.326Z,13.30
2018-01-23T09:46:08.225Z,11.02
2018-01-23T09:49:18.604Z,12.10
2018-01-23T09:52:29.194Z,13.43
2018-01-23T09:55:39.626Z,14.45
2018-01-23T09:58:49.954Z,15.50
2018-01-23T10:02:00.964Z,15.80
2018-01-23T10:05:10.886Z,16.77
2018-01-23T10:08:22.371Z,15.10
2018-01-23T10:11:32.353Z,17.20
2018-01-23T10:14:42.817Z,15.90
2018-01-23T10:17:53.354Z,14.40
2018-01-23T10:21:03.370Z,15.23
2018-01-23T10:24:13.043Z,16.65
2018-01-23T10:27:22.911Z,13.55
2018-01-23T10:30:32.866Z,15.15
2018-01-23T10:33:42.839Z,17.15
2018-01-23T10:36:53.507Z,15.02
2018-01-23T10:40:04.030Z,16.00
2018-01-23T10:43:14.359Z,15.35
2018-01-23T10:46:24.246Z,13.77
2018-01-23T10:49:34.237Z,16.15
2018-01-23T10:52:43.729Z,17.33
2018-01-23T10:55:53.835Z,13.65
2018-01-23T10:59:04.106Z,15.45
2018-01-23T11:02:14.099Z,14.27
2018-01-23T11:05:24.533Z,16.58
2018-01-23T11:08:35.475Z,14.63
2018-01-23T11:11:45.935Z,15.73
2018-01-23T11:14:56.514Z,17.17
2018-01-23T11:18:06.651Z,15.00
2018-01-23T11:21:16.349Z,10.95
2018-01-23T11:24:26.499Z,14.15
2018-01-23T11:27:36.963Z,16.87
2018-01-23T11:30:46.940Z,17.55
2018-01-23T11:34:04.327Z,15.23
2018-01-23T11:37:14.709Z,13.32
2018-01-23T11:40:24.579Z,15.30
2018-01-23T11:43:34.230Z,18.20
2018-01-23T11:46:44.218Z,16.00
2018-01-23T11:49:54.811Z,13.45
2018-01-23T11:53:04.902Z,17.27
2018-01-23T11:56:15.547Z,14.07
2018-01-23T11:59:25.493Z,13.95
2018-01-23T12:02:35.474Z,14.68
2018-01-23T12:05:45.526Z,14.45
2018-01-23T12:08:55.659Z,13.88
2018-01-23T12:12:05.816Z,15.90
2018-01-23T12:15:16.922Z,15.55
2018-01-23T12:18:27.541Z,16.50
2018-01-23T12:21:37.434Z,14.48
2018-01-23T12:24:48.223Z,14.40
2018-01-23T12:27:57.947Z,16.23
2018-01-23T12:31:09.296Z,13.68
2018-01-23T12:34:19.534Z,14.87
2018-01-23T12:37:29.475Z,18.60
2018-01-23T12:40:40.049Z,13.20
2018-01-23T12:43:49.987Z,17.35
2018-01-23T12:46:59.926Z,13.57
2018-01-23T12:50:09.846Z,16.77
2018-01-23T12:53:19.706Z,15.30
2018-01-23T12:56:29.686Z,18.05
2018-01-23T12:59:39.567Z,18.65
2018-01-23T13:02:49.393Z,15.05
2018-01-23T13:05:59.399Z,17.87
2018-01-23T13:09:09.894Z,19.00
2018-01-23T13:12:20.167Z,15.20
2018-01-23T13:15:30.030Z,16.67
2018-01-23T13:18:40.697Z,15.75
2018-01-23T13:21:51.240Z,17.25
2018-01-23T13:25:01.254Z,16.27
2018-01-23T13:28:11.043Z,18.08
2018-01-23T13:31:21.278Z,12.90
2018-01-23T13:34:31.923Z,14.27
2018-01-23T13:37:43.244Z,15.13
2018-01-23T13:40:54.276Z,16.02
2018-01-23T13:44:04.571Z,16.30
2018-01-23T13:47:15.146Z,14.25
2018-01-23T13:50:24.923Z,15.30
2018-01-23T13:53:35.159Z,18.23
2018-01-23T13:56:45.085Z,15.80
2018-01-23T13:59:54.830Z,16.15
2018-01-23T14:03:04.754Z,13.90
2018-01-23T14:06:16.130Z,15.23
2018-01-23T14:09:26.746Z,15.20
2018-01-23T14:12:36.622Z,15.55
2018-01-23T14:15:46.530Z,15.10
2018-01-23T14:18:57.251Z,17.33
2018-01-23T14:22:07.168Z,17.85
2018-01-23T14:25:17.767Z,16.17
2018-01-23T14:28:27.969Z,14.87
2018-01-23T14:31:38.522Z,17.50
2018-01-23T14:34:48.860Z,18.25
2018-01-23T14:37:59.010Z,16.83
2018-01-23T14:41:08.967Z,14.60
2018-01-23T14:44:19.077Z,16.98
2018-01-23T14:47:29.722Z,18.20
2018-01-23T14:50:40.222Z,17.37
2018-01-23T14:53:50.026Z,15.85
2018-01-23T14:56:59.826Z,16.42
2018-01-23T15:00:10.379Z,17.87
2018-01-23T15:03:20.314Z,17.98
2018-01-23T15:06:30.372Z,17.77
2018-01-23T15:09:40.967Z,17.08
2018-01-23T15:12:51.101Z,14.90
2018-01-23T15:16:00.982Z,14.45
2018-01-23T15:19:10.924Z,19.33
2018-01-23T15:22:20.746Z,15.07
2018-01-23T15:25:30.772Z,18.10
2018-01-23T15:28:40.693Z,18.77
2018-01-23T15:31:51.264Z,15.63
2018-01-23T15:35:01.267Z,20.35
2018-01-23T15:38:12.103Z,15.80
2018-01-23T15:41:23.227Z,18.10
2018-01-23T15:44:33.935Z,16.30
2018-01-23T15:47:44.502Z,18.75
2018-01-23T15:50:54.761Z,15.48
2018-01-23T15:54:05.076Z,20.17
2018-01-23T15:57:15.434Z,20.10
2018-01-23T16:00:26.002Z,22.20
2018-01-23T16:03:36.332Z,18.70
2018-01-23T16:06:46.622Z,17.27
2018-01-23T16:09:56.925Z,17.40
2018-01-23T16:13:06.976Z,16.83
2018-01-23T16:16:17.349Z,17.58
2018-01-23T16:19:27.233Z,17.33
2018-01-23T16:22:37.218Z,18.83
2018-01-23T16:25:47.212Z,22.98
2018-01-23T16:28:57.037Z,17.27
2018-01-23T16:32:06.926Z,15.88
2018-01-23T16:35:16.737Z,14.95
2018-01-23T16:38:26.658Z,17.00
2018-01-23T16:41:36.662Z,19.60
2018-01-23T16:44:46.566Z,16.80
2018-01-23T16:47:56.488Z,18.48
2018-01-23T16:51:06.320Z,18.27
2018-01-23T16:54:17.378Z,18.23
2018-01-23T16:57:27.764Z,19.37
2018-01-23T17:00:38.633Z,27.52
2018-01-23T17:03:50.086Z,31.02
2018-01-23T17:07:00.699Z,27.35
2018-01-23T17:10:10.418Z,24.33
2018-01-23T17:13:20.154Z,22.90
2018-01-23T17:16:30.711Z,21.00
2018-01-23T17:19:41.136Z,21.02
2018-01-23T17:22:51.670Z,18.65
2018-01-23T17:26:03.118Z,16.90
2018-01-23T17:29:13.969Z,15.32
2018-01-23T17:32:24.060Z,20.55
2018-01-23T17:35:34.403Z,13.62
2018-01-23T17:38:45.521Z,19.50
2018-01-23T17:41:55.614Z,17.60
2018-01-23T17:45:06.218Z,12.65
2018-01-23T17:48:16.232Z,16.02
2018-01-23T17:51:26.142Z,14.98
2018-01-23T17:54:36.196Z,14.75
2018-01-23T17:57:46.134Z,17.52
2018-01-23T18:00:56.066Z,17.65
2018-01-23T18:04:06.676Z,15.85
2018-01-23T18:07:17.162Z,16.42
2018-01-23T18:10:27.101Z,15.80
2018-01-23T18:13:37.332Z,18.42
2018-01-23T18:16:47.665Z,13.77
2018-01-23T18:19:58.825Z,15.48
2018-01-23T18:23:09.028Z,16.08
2018-01-23T18:26:20.173Z,15.23
2018-01-23T18:29:30.066Z,21.23
2018-01-23T18:32:40.984Z,24.15
2018-01-23T18:35:51.002Z,25.90
2018-01-23T18:39:01.642Z,14.13
2018-01-23T18:42:13.168Z,29.08
2018-01-23T18:45:24.183Z,16.75
2018-01-23T18:48:35.214Z,15.63
2018-01-23T18:51:45.496Z,18.52
2018-01-23T18:54:55.810Z,15.80
2018-01-23T18:58:06.031Z,25.90
2018-01-23T19:01:15.997Z,22.90
2018-01-23T19:04:25.906Z,19.52
2018-01-23T19:07:36.378Z,18.77
2018-01-23T19:10:46.526Z,19.17
2018-01-23T19:13:56.470Z,19.48
2018-01-23T19:17:06.666Z,13.43
2018-01-23T19:20:16.937Z,12.50
2018-01-23T19:23:27.237Z,12.40
2018-01-23T19:26:37.470Z,13.50
2018-01-23T19:29:47.869Z,14.77
2018-01-23T19:32:58.154Z,15.70
2018-01-23T19:36:07.857Z,11.27
2018-01-23T19:39:17.650Z,14.70
2018-01-23T19:42:28.017Z,15.98
2018-01-23T19:45:38.565Z,15.77
2018-01-23T19:48:48.665Z,17.58
2018-01-23T19:51:58.911Z,14.90
2018-01-23T19:55:09.056Z,14.18
2018-01-23T19:58:18.981Z,14.32
2018-01-23T20:01:28.741Z,10.40
2018-01-23T20:04:38.811Z,11.93
2018-01-23T20:07:48.526Z,13.13
2018-01-23T20:10:58.590Z,12.20
2018-01-23T20:14:09.166Z,12.70
2018-01-23T20:17:19.330Z,11.68
2018-01-23T20:20:29.301Z,12.75
2018-01-23T20:23:39.245Z,12.30
2018-01-23T20:26:50.441Z,14.07
2018-01-23T20:30:00.608Z,12.55
2018-01-23T20:33:10.964Z,10.48
2018-01-23T20:36:21.132Z,11.70
2018-01-23T20:39:31.786Z,12.57
2018-01-23T20:42:42.949Z,12.30
2018-01-23T20:45:53.007Z,13.13
2018-01-23T20:49:03.167Z,11.68
2018-01-23T20:52:13.066Z,12.50
2018-01-23T20:55:23.407Z,12.32
2018-01-23T20:58:33.230Z,11.85
2018-01-23T21:01:42.959Z,11.80
2018-01-23T21:04:52.911Z,10.10
2018-01-23T21:08:02.928Z,11.38
2018-01-23T21:11:12.683Z,13.45
2018-01-23T21:14:22.629Z,26.58
2018-01-23T21:17:33.343Z,22.60
2018-01-23T21:20:43.678Z,18.73
2018-01-23T21:23:54.415Z,13.57
2018-01-23T21:27:03.945Z,15.45
2018-01-23T21:30:14.645Z,13.48
2018-01-23T21:33:25.293Z,15.38
2018-01-23T21:36:35.888Z,12.27
2018-01-23T21:39:46.214Z,15.07
2018-01-23T21:42:56.075Z,14.23
2018-01-23T21:46:07.313Z,12.18
2018-01-23T21:49:18.110Z,11.75
2018-01-23T21:52:28.244Z,12.00
2018-01-23T21:55:39.857Z,10.90
2018-01-23T21:58:50.252Z,12.77
2018-01-23T22:01:59.954Z,12.00
2018-01-23T22:05:10.002Z,12.32
2018-01-23T22:08:20.693Z,12.50
2018-01-23T22:11:30.564Z,13.32
2018-01-23T22:14:40.796Z,11.93
2018-01-23T22:17:50.739Z,11.55
2018-01-23T22:21:00.665Z,11.25
2018-01-23T22:24:11.500Z,11.90
2018-01-23T22:27:21.640Z,12.43
2018-01-23T22:30:31.527Z,12.35
2018-01-23T22:33:41.387Z,13.35
2018-01-23T22:36:51.192Z,11.60
2018-01-23T22:40:01.247Z,12.50
2018-01-23T22:43:11.211Z,12.02
2018-01-23T22:46:21.933Z,13.15
2018-01-23T22:49:32.122Z,11.10
2018-01-23T22:52:42.092Z,11.90
2018-01-23T22:55:52.343Z,12.65
2018-01-23T22:59:02.722Z,11.43
2018-01-23T23:02:12.942Z,11.82
2018-01-23T23:05:23.428Z,13.18
2018-01-23T23:08:34.217Z,13.40
2018-01-23T23:11:44.724Z,14.52
2018-01-23T23:14:55.262Z,12.15
2018-01-23T23:18:05.764Z,14.30
2018-01-23T23:21:16.364Z,15.10
2018-01-23T23:24:26.544Z,13.65
2018-01-23T23:27:36.561Z,13.57
2018-01-23T23:30:46.400Z,13.70
2018-01-23T23:33:56.195Z,14.23
2018-01-23T23:37:05.906Z,15.13
2018-01-23T23:40:15.856Z,11.63
2018-01-23T23:43:26.596Z,13.68
2018-01-23T23:49:52.700Z,13.05
2018-01-23T23:53:02.610Z,13.68
2018-01-23T23:56:12.527Z,11.40
2018-01-23T23:59:22.437Z,13.48
